Time;durP1;ratioP1;P1;durP2;ratioP2;P2;SDS_P1;SDS_P2;PMS_P1;PMS_P2;Temp;Humidity;BMP_temperature;BMP_pressure;BME280_temperature;BME280_humidity;BME280_pressure;Samples;Min_cycle;Max_cycle;Signal;HPM_P1;HPM_P2
2022/07/16 00:01:25;;;;;;;;;;;28.00;38.40;;;;;;8330449;28;20321;-44
2022/07/16 00:05:25;;;;;;;;;;;28.00;38.40;;;;;;8329599;28;19928;-45
2022/07/16 00:09:26;;;;;;;;;;;28.00;38.50;;;;;;8330200;28;19932;-44
2022/07/16 00:13:26;;;;;;;;;;;28.00;38.50;;;;;;8329937;28;20294;-45
2022/07/16 00:17:27;;;;;;;;;;;28.00;38.50;;;;;;8329401;28;19931;-45
2022/07/16 00:21:27;;;;;;;;;;;28.00;38.50;;;;;;8329817;28;19921;-45
2022/07/16 00:25:28;;;;;;;;;;;27.90;38.40;;;;;;8329647;28;19963;-46
2022/07/16 00:29:28;;;;;;;;;;;27.90;38.40;;;;;;8330250;28;19925;-44
2022/07/16 00:33:29;;;;;;;;;;;27.90;38.40;;;;;;8329693;28;20377;-44
2022/07/16 00:37:29;;;;;;;;;;;27.90;38.50;;;;;;8329135;28;20043;-43
2022/07/16 00:41:30;;;;;;;;;;;27.90;38.40;;;;;;8329560;28;20298;-45
2022/07/16 00:45:30;;;;;;;;;;;27.90;38.40;;;;;;8329573;28;20328;-45
2022/07/16 00:49:31;;;;;;;;;;;27.90;38.50;;;;;;8329311;28;19925;-43
2022/07/16 00:53:32;;;;;;;;;;;27.90;38.40;;;;;;8329429;28;20395;-45
2022/07/16 00:57:32;;;;;;;;;;;27.80;38.40;;;;;;8329169;28;19917;-45
2022/07/16 01:01:33;;;;;;;;;;;27.80;38.40;;;;;;8333200;28;19913;-45
2022/07/16 01:05:33;;;;;;;;;;;27.80;38.40;;;;;;8334241;28;19914;-44
2022/07/16 01:09:35;;;;;;;;;;;27.80;38.40;;;;;;8335415;28;19925;-44
2022/07/16 01:13:37;;;;;;;;;;;27.80;38.40;;;;;;8334565;28;19917;-44
2022/07/16 01:17:37;;;;;;;;;;;27.80;38.40;;;;;;8334766;28;20385;-44
2022/07/16 01:21:38;;;;;;;;;;;27.80;38.40;;;;;;8334821;28;19920;-44
2022/07/16 01:25:39;;;;;;;;;;;27.70;38.40;;;;;;8334422;28;20285;-45
2022/07/16 01:29:39;;;;;;;;;;;27.70;38.40;;;;;;8334314;28;19925;-43
2022/07/16 01:33:40;;;;;;;;;;;27.70;38.40;;;;;;8311897;28;19940;-43
2022/07/16 01:37:40;;;;;;;;;;;27.70;38.40;;;;;;8313115;28;20406;-43
2022/07/16 01:41:48;;;;;;;;;;;27.70;38.40;;;;;;8333346;28;20040;-47
2022/07/16 01:45:49;;;;;;;;;;;27.70;38.40;;;;;;8333922;28;20259;-45
2022/07/16 01:49:49;;;;;;;;;;;27.60;38.30;;;;;;8333607;28;19925;-44
2022/07/16 01:53:49;;;;;;;;;;;27.60;38.30;;;;;;8333746;28;20007;-43
2022/07/16 01:57:50;;;;;;;;;;;27.70;38.40;;;;;;8333763;28;19913;-43
2022/07/16 02:01:50;;;;;;;;;;;27.60;38.30;;;;;;8332975;28;19917;-44
2022/07/16 02:05:51;;;;;;;;;;;27.60;38.30;;;;;;8333578;28;20000;-44
2022/07/16 02:09:51;;;;;;;;;;;27.60;38.40;;;;;;8333297;28;19936;-44
2022/07/16 02:13:52;;;;;;;;;;;27.60;38.50;;;;;;8331873;28;19921;-45
2022/07/16 02:17:52;;;;;;;;;;;27.60;38.40;;;;;;8333217;28;19917;-44
2022/07/16 02:21:53;;;;;;;;;;;27.50;38.30;;;;;;8332842;28;19913;-44
2022/07/16 02:25:53;;;;;;;;;;;27.50;38.40;;;;;;8332466;28;19963;-44
2022/07/16 02:29:54;;;;;;;;;;;27.50;38.40;;;;;;8332665;28;19925;-44
2022/07/16 02:33:54;;;;;;;;;;;27.50;38.40;;;;;;8332317;28;19979;-44
2022/07/16 02:37:56;;;;;;;;;;;27.50;38.40;;;;;;8331845;28;19917;-46
2022/07/16 02:41:56;;;;;;;;;;;27.50;38.40;;;;;;8332286;28;20413;-46
2022/07/16 02:45:57;;;;;;;;;;;27.50;38.40;;;;;;8332320;28;19959;-44
2022/07/16 02:49:57;;;;;;;;;;;27.50;38.40;;;;;;8331381;28;19964;-45
2022/07/16 02:53:58;;;;;;;;;;;27.40;38.30;;;;;;8331820;28;19921;-44
2022/07/16 02:57:58;;;;;;;;;;;27.40;38.40;;;;;;8331830;28;20401;-44
2022/07/16 03:01:59;;;;;;;;;;;27.40;38.40;;;;;;8331065;28;20395;-45
2022/07/16 03:05:59;;;;;;;;;;;27.40;38.40;;;;;;8331621;28;20362;-44
2022/07/16 03:10:00;;;;;;;;;;;27.40;38.40;;;;;;8331409;28;20374;-43
2022/07/16 03:14:00;;;;;;;;;;;27.40;38.40;;;;;;8330839;28;19917;-43
2022/07/16 03:18:00;;;;;;;;;;;27.40;38.40;;;;;;8331126;28;19943;-43
2022/07/16 03:22:01;;;;;;;;;;;27.40;38.50;;;;;;8330622;28;19964;-45
2022/07/16 03:26:02;;;;;;;;;;;27.30;38.40;;;;;;8330106;28;19940;-43
2022/07/16 03:30:02;;;;;;;;;;;27.30;38.40;;;;;;8330747;28;20267;-43
2022/07/16 03:34:03;;;;;;;;;;;27.30;38.50;;;;;;8330924;28;19921;-44
2022/07/16 03:42:23;;;;;;;;;;;27.30;38.40;;;;;;8330808;28;20278;-44
2022/07/16 03:46:23;;;;;;;;;;;27.30;38.40;;;;;;8330833;28;19913;-45
2022/07/16 03:50:23;;;;;;;;;;;27.30;38.40;;;;;;8329706;28;19925;-44
2022/07/16 03:54:24;;;;;;;;;;;27.30;38.50;;;;;;8330309;28;19977;-44
2022/07/16 03:58:26;;;;;;;;;;;27.20;38.40;;;;;;8330194;28;19953;-44
2022/07/16 04:02:26;;;;;;;;;;;27.20;38.50;;;;;;8329603;28;19925;-44
2022/07/16 04:06:27;;;;;;;;;;;27.20;38.40;;;;;;8316280;28;19920;-44
2022/07/16 04:10:27;;;;;;;;;;;27.20;38.40;;;;;;8327793;28;19979;-44
2022/07/16 04:14:27;;;;;;;;;;;27.20;38.50;;;;;;8329604;28;19917;-43
2022/07/16 04:18:28;;;;;;;;;;;27.10;38.40;;;;;;8329868;28;19967;-44
2022/07/16 04:22:28;;;;;;;;;;;27.10;38.40;;;;;;8329422;28;19944;-42
2022/07/16 04:26:29;;;;;;;;;;;27.10;38.40;;;;;;8330077;28;19974;-44
2022/07/16 04:30:29;;;;;;;;;;;27.10;38.40;;;;;;8329537;28;19932;-44
2022/07/16 04:34:30;;;;;;;;;;;27.10;38.40;;;;;;8330815;28;19964;-44
2022/07/16 04:38:30;;;;;;;;;;;27.10;38.40;;;;;;8336061;28;19991;-44
2022/07/16 04:42:31;;;;;;;;;;;27.10;38.40;;;;;;8335910;28;19923;-43
2022/07/16 04:46:31;;;;;;;;;;;27.10;38.40;;;;;;8335583;28;19967;-45
2022/07/16 04:50:32;;;;;;;;;;;27.10;38.50;;;;;;8335447;28;20366;-43
2022/07/16 04:54:32;;;;;;;;;;;27.10;38.40;;;;;;8335678;28;20420;-43
2022/07/16 04:58:33;;;;;;;;;;;27.10;38.40;;;;;;8335028;28;19963;-43
2022/07/16 05:06:52;;;;;;;;;;;27.10;38.40;;;;;;8335629;28;20039;-43
2022/07/16 05:10:53;;;;;;;;;;;27.10;38.40;;;;;;8334700;28;19925;-43
2022/07/16 05:14:53;;;;;;;;;;;27.10;38.40;;;;;;8335081;28;20426;-44
2022/07/16 05:18:54;;;;;;;;;;;27.00;38.40;;;;;;8334802;28;19917;-43
2022/07/16 05:22:55;;;;;;;;;;;27.00;38.30;;;;;;8334094;28;19967;-43
2022/07/16 05:26:55;;;;;;;;;;;27.00;38.40;;;;;;8317062;28;19964;-43
2022/07/16 05:30:56;;;;;;;;;;;27.00;38.30;;;;;;8334242;28;19960;-43
2022/07/16 05:34:56;;;;;;;;;;;27.10;38.30;;;;;;8333978;28;19924;-43
2022/07/16 05:38:56;;;;;;;;;;;27.10;38.10;;;;;;8334556;28;20286;-43
2022/07/16 05:42:57;;;;;;;;;;;27.10;38.10;;;;;;8334033;28;20000;-46
2022/07/16 05:46:57;;;;;;;;;;;27.10;38.10;;;;;;8332591;28;19913;-43
2022/07/16 05:50:58;;;;;;;;;;;27.10;38.10;;;;;;8333633;28;19925;-44
2022/07/16 05:54:58;;;;;;;;;;;27.10;38.10;;;;;;8333625;28;20362;-44
2022/07/16 05:59:02;;;;;;;;;;;27.10;38.10;;;;;;8333165;28;19940;-44
2022/07/16 06:03:02;;;;;;;;;;;27.00;38.00;;;;;;8332834;28;19917;-44
2022/07/16 06:07:03;;;;;;;;;;;27.00;38.10;;;;;;8333430;28;20326;-44
2022/07/16 06:11:03;;;;;;;;;;;27.00;38.10;;;;;;8332689;28;20354;-44
2022/07/16 06:15:04;;;;;;;;;;;27.00;38.10;;;;;;8333100;28;19918;-44
2022/07/16 06:19:05;;;;;;;;;;;27.00;38.10;;;;;;8333068;28;19920;-44
2022/07/16 06:23:05;;;;;;;;;;;27.00;38.20;;;;;;8332360;28;19927;-45
2022/07/16 06:27:06;;;;;;;;;;;27.00;38.10;;;;;;8333114;28;19932;-44
2022/07/16 06:31:06;;;;;;;;;;;26.90;38.10;;;;;;8332552;28;19925;-44
2022/07/16 06:35:07;;;;;;;;;;;26.90;38.10;;;;;;8332112;28;19929;-42
2022/07/16 06:39:08;;;;;;;;;;;26.90;38.10;;;;;;8332393;28;19917;-45
2022/07/16 06:43:09;;;;;;;;;;;26.90;38.10;;;;;;8332404;28;20019;-48
2022/07/16 06:47:09;;;;;;;;;;;26.90;38.10;;;;;;8331871;28;19913;-45
2022/07/16 06:51:10;;;;;;;;;;;26.90;38.10;;;;;;8332136;28;19948;-45
2022/07/16 06:55:10;;;;;;;;;;;27.00;38.10;;;;;;8331858;28;19917;-44
2022/07/16 06:59:10;;;;;;;;;;;26.90;38.00;;;;;;8331070;28;20367;-44
2022/07/16 07:03:11;;;;;;;;;;;26.90;38.10;;;;;;8331781;28;19913;-44
2022/07/16 07:07:12;;;;;;;;;;;26.90;38.10;;;;;;8331816;28;19913;-44
2022/07/16 07:11:12;;;;;;;;;;;26.90;38.00;;;;;;8330412;28;20374;-45
2022/07/16 07:15:13;;;;;;;;;;;26.90;38.10;;;;;;8331360;28;19918;-44
2022/07/16 07:19:13;;;;;;;;;;;26.90;38.00;;;;;;8331335;28;20366;-43
2022/07/16 07:23:14;;;;;;;;;;;26.90;38.00;;;;;;8330490;28;20374;-44
2022/07/16 07:27:15;;;;;;;;;;;26.90;38.10;;;;;;8330930;28;19921;-44
2022/07/16 07:31:15;;;;;;;;;;;26.90;38.00;;;;;;8330755;28;19925;-44
2022/07/16 07:35:16;;;;;;;;;;;26.90;38.10;;;;;;8330250;28;19928;-44
2022/07/16 07:39:16;;;;;;;;;;;26.90;38.10;;;;;;8330634;28;20370;-45
2022/07/16 07:43:16;;;;;;;;;;;26.90;38.10;;;;;;8330482;28;20385;-45
2022/07/16 07:47:17;;;;;;;;;;;26.90;38.20;;;;;;8330158;28;19913;-45
2022/07/16 07:51:18;;;;;;;;;;;26.90;38.10;;;;;;8330255;28;19925;-43
2022/07/16 07:55:19;;;;;;;;;;;26.90;38.70;;;;;;8330358;28;19996;-43
2022/07/16 07:59:19;;;;;;;;;;;26.90;38.10;;;;;;8329800;28;20290;-43
2022/07/16 08:03:20;;;;;;;;;;;26.90;38.10;;;;;;8330188;28;19996;-45
2022/07/16 08:07:21;;;;;;;;;;;26.90;38.10;;;;;;8330408;28;19967;-45
2022/07/16 08:11:21;;;;;;;;;;;27.00;38.10;;;;;;8334173;28;20263;-43
2022/07/16 08:15:21;;;;;;;;;;;27.00;38.20;;;;;;8337051;28;19921;-44
2022/07/16 08:19:22;;;;;;;;;;;27.00;38.20;;;;;;8336818;28;19924;-44
2022/07/16 08:27:42;;;;;;;;;;;27.00;38.10;;;;;;8337338;28;19979;-44
2022/07/16 08:31:42;;;;;;;;;;;27.00;38.20;;;;;;8335784;28;19925;-45
2022/07/16 08:35:44;;;;;;;;;;;27.10;38.30;;;;;;8336114;28;19924;-43
2022/07/16 08:39:44;;;;;;;;;;;27.00;38.20;;;;;;8336192;28;19917;-44
2022/07/16 08:43:45;;;;;;;;;;;27.10;38.30;;;;;;8335601;28;19913;-45
2022/07/16 08:47:45;;;;;;;;;;;27.10;38.30;;;;;;8336082;28;20324;-44
2022/07/16 08:51:46;;;;;;;;;;;27.10;38.30;;;;;;8335881;28;19971;-43
2022/07/16 08:55:47;;;;;;;;;;;27.10;38.30;;;;;;8335110;28;19921;-43
2022/07/16 08:59:49;;;;;;;;;;;27.10;38.30;;;;;;8335574;28;19917;-44
2022/07/16 09:03:50;;;;;;;;;;;27.10;38.20;;;;;;8335318;28;19917;-46
2022/07/16 09:07:51;;;;;;;;;;;27.20;38.40;;;;;;8317050;28;19940;-44
2022/07/16 09:11:51;;;;;;;;;;;27.20;38.40;;;;;;8317159;28;19925;-44
2022/07/16 09:15:52;;;;;;;;;;;27.20;38.30;;;;;;8334816;28;19917;-45
2022/07/16 09:19:52;;;;;;;;;;;27.20;38.90;;;;;;8334329;28;20366;-44
2022/07/16 09:23:53;;;;;;;;;;;27.20;38.30;;;;;;8334717;28;20374;-45
2022/07/16 09:28:00;;;;;;;;;;;27.20;38.30;;;;;;8334611;28;19925;-44
2022/07/16 09:32:00;;;;;;;;;;;27.30;38.40;;;;;;8333762;28;19975;-44
2022/07/16 09:36:09;;;;;;;;;;;27.30;38.30;;;;;;8334360;28;19917;-44
2022/07/16 09:40:10;;;;;;;;;;;27.30;38.40;;;;;;8334384;28;19932;-44
2022/07/16 09:44:15;;;;;;;;;;;27.30;38.40;;;;;;8333744;28;19913;-44
2022/07/16 09:48:19;;;;;;;;;;;27.40;38.40;;;;;;8334386;28;19917;-45
2022/07/16 09:52:30;;;;;;;;;;;27.40;38.40;;;;;;8333887;28;19925;-43
2022/07/16 09:56:31;;;;;;;;;;;27.40;38.90;;;;;;8333833;28;20263;-44
2022/07/16 10:00:31;;;;;;;;;;;27.40;38.30;;;;;;8333847;28;20148;-43
2022/07/16 10:04:32;;;;;;;;;;;27.40;38.30;;;;;;8333233;28;19924;-45
2022/07/16 10:08:33;;;;;;;;;;;27.40;38.30;;;;;;8318483;28;19972;-44
2022/07/16 10:12:33;;;;;;;;;;;27.40;38.30;;;;;;8328517;28;19925;-43
2022/07/16 10:16:41;;;;;;;;;;;27.50;38.30;;;;;;8332684;28;19960;-44
2022/07/16 10:20:41;;;;;;;;;;;27.50;38.30;;;;;;8333319;28;19944;-44
2022/07/16 10:24:45;;;;;;;;;;;27.50;38.30;;;;;;8332968;28;19917;-44
2022/07/16 10:28:49;;;;;;;;;;;27.50;38.30;;;;;;8332663;28;19928;-44
2022/07/16 10:32:59;;;;;;;;;;;27.50;38.30;;;;;;8332223;28;20362;-44
2022/07/16 10:37:00;;;;;;;;;;;27.60;38.30;;;;;;8332653;28;19967;-45
2022/07/16 10:41:05;;;;;;;;;;;27.60;38.30;;;;;;8332067;28;19956;-45
2022/07/16 10:45:06;;;;;;;;;;;27.60;38.20;;;;;;8332151;28;19917;-45
2022/07/16 10:49:06;;;;;;;;;;;27.60;38.10;;;;;;8332299;28;19987;-45
2022/07/16 10:53:07;;;;;;;;;;;27.60;38.20;;;;;;8331470;28;20016;-46
2022/07/16 10:57:11;;;;;;;;;;;27.70;38.20;;;;;;8331849;28;20314;-45
2022/07/16 11:01:11;;;;;;;;;;;27.70;38.10;;;;;;8331785;28;20396;-43
2022/07/16 11:05:12;;;;;;;;;;;27.70;38.10;;;;;;8331116;28;19964;-44
2022/07/16 11:09:12;;;;;;;;;;;27.70;38.10;;;;;;8332030;28;19913;-44
2022/07/16 11:13:14;;;;;;;;;;;27.70;38.10;;;;;;8331398;28;19921;-43
2022/07/16 11:17:15;;;;;;;;;;;27.70;38.20;;;;;;8313088;28;19940;-44
2022/07/16 11:21:16;;;;;;;;;;;27.80;38.30;;;;;;8331024;28;19917;-44
2022/07/16 11:25:16;;;;;;;;;;;27.80;38.20;;;;;;8331052;28;20306;-44
2022/07/16 11:29:17;;;;;;;;;;;27.80;38.20;;;;;;8331228;28;19967;-44
2022/07/16 11:33:31;;;;;;;;;;;27.80;38.20;;;;;;8330780;28;19917;-44
2022/07/16 11:38:07;;;;;;;;;;;27.90;38.30;;;;;;8330235;28;20370;-44
2022/07/16 11:42:07;;;;;;;;;;;27.90;38.20;;;;;;8224381;28;19921;-44
2022/07/16 11:46:19;;;;;;;;;;;27.90;38.70;;;;;;8308089;28;19913;-44
2022/07/16 11:50:26;;;;;;;;;;;27.90;38.10;;;;;;8329925;28;20298;-45
2022/07/16 11:54:27;;;;;;;;;;;27.90;38.10;;;;;;8330672;28;19917;-44
2022/07/16 11:58:28;;;;;;;;;;;28.00;38.20;;;;;;8330216;28;19980;-44
2022/07/16 12:02:42;;;;;;;;;;;28.00;38.20;;;;;;8330189;28;20370;-44
2022/07/16 12:06:47;;;;;;;;;;;28.00;38.00;;;;;;8330028;28;19917;-43
2022/07/16 12:10:56;;;;;;;;;;;28.00;38.10;;;;;;8329671;28;19964;-43
2022/07/16 12:14:56;;;;;;;;;;;28.10;37.90;;;;;;8330502;28;19924;-44
2022/07/16 12:19:04;;;;;;;;;;;28.10;38.10;;;;;;8330266;28;19996;-44
2022/07/16 12:23:10;;;;;;;;;;;28.10;38.10;;;;;;8329524;28;19917;-44
2022/07/16 12:27:11;;;;;;;;;;;28.10;38.10;;;;;;8330135;28;19921;-45
2022/07/16 12:31:11;;;;;;;;;;;28.10;38.00;;;;;;8329752;28;20032;-45
2022/07/16 12:35:31;;;;;;;;;;;28.10;38.00;;;;;;8329309;28;19913;-45
2022/07/16 12:39:31;;;;;;;;;;;28.20;38.00;;;;;;8329958;28;19960;-46
2022/07/16 12:43:32;;;;;;;;;;;28.20;38.00;;;;;;8329567;28;20016;-45
2022/07/16 12:47:32;;;;;;;;;;;28.20;38.00;;;;;;8329799;28;19917;-45
2022/07/16 12:51:34;;;;;;;;;;;28.20;38.00;;;;;;8329241;28;19932;-43
2022/07/16 12:59:54;;;;;;;;;;;28.30;38.10;;;;;;8342902;28;19920;-44
2022/07/16 13:03:54;;;;;;;;;;;28.30;38.00;;;;;;8335410;28;19917;-45
2022/07/16 13:07:55;;;;;;;;;;;28.30;37.90;;;;;;8334786;28;19971;-45
2022/07/16 16:12:05;;;;;;;;;;;28.70;37.50;;;;;;8368852;28;19931;-45
2022/07/16 16:16:06;;;;;;;;;;;28.70;37.50;;;;;;8396718;28;20373;-45
2022/07/16 16:20:07;;;;;;;;;;;28.70;37.60;;;;;;8366616;28;20393;-44
2022/07/16 16:24:07;;;;;;;;;;;28.70;37.60;;;;;;8363161;28;19967;-44
2022/07/16 16:28:08;;;;;;;;;;;28.70;37.50;;;;;;8362779;28;20318;-44
2022/07/16 16:32:09;;;;;;;;;;;28.70;37.50;;;;;;8366319;28;19925;-45
2022/07/16 16:36:09;;;;;;;;;;;28.70;37.50;;;;;;8369836;28;19913;-45
2022/07/16 16:40:10;;;;;;;;;;;28.70;37.50;;;;;;8369305;28;20328;-45
2022/07/16 16:44:11;;;;;;;;;;;28.70;37.50;;;;;;8368384;28;19963;-46
2022/07/16 16:48:11;;;;;;;;;;;28.70;37.50;;;;;;8369202;28;19917;-45
2022/07/16 16:52:13;;;;;;;;;;;28.70;37.40;;;;;;8368595;28;20358;-44
2022/07/16 16:56:13;;;;;;;;;;;28.70;37.40;;;;;;8368505;28;19917;-44
2022/07/16 17:00:14;;;;;;;;;;;28.70;37.40;;;;;;8368669;28;20026;-44
2022/07/16 17:04:15;;;;;;;;;;;28.70;37.50;;;;;;8368616;28;19931;-44
2022/07/16 17:08:15;;;;;;;;;;;28.70;37.50;;;;;;8367719;28;19924;-44
2022/07/16 17:12:16;;;;;;;;;;;28.70;37.50;;;;;;8368101;28;20408;-44
2022/07/16 17:16:16;;;;;;;;;;;28.70;37.50;;;;;;8368436;28;19944;-44
2022/07/16 17:20:17;;;;;;;;;;;28.70;37.50;;;;;;8367417;28;19921;-44
2022/07/16 17:24:17;;;;;;;;;;;28.60;37.40;;;;;;8367902;28;19939;-44
2022/07/16 17:28:18;;;;;;;;;;;28.60;37.50;;;;;;8367725;28;20412;-44
2022/07/16 17:32:18;;;;;;;;;;;28.60;37.50;;;;;;8367105;28;19948;-44
2022/07/16 17:36:19;;;;;;;;;;;28.60;37.50;;;;;;8367800;28;19917;-43
2022/07/16 17:40:19;;;;;;;;;;;28.60;37.50;;;;;;8367490;28;19920;-44
2022/07/16 17:44:20;;;;;;;;;;;28.60;37.60;;;;;;8365387;28;19962;-45
2022/07/16 17:48:20;;;;;;;;;;;28.60;37.60;;;;;;8367073;28;20384;-45
2022/07/16 17:52:28;;;;;;;;;;;28.60;37.50;;;;;;8367057;28;19924;-44
2022/07/16 17:56:29;;;;;;;;;;;28.60;37.60;;;;;;8366742;28;19924;-45
2022/07/16 18:00:29;;;;;;;;;;;28.60;37.60;;;;;;8366932;28;20370;-45
2022/07/16 18:04:30;;;;;;;;;;;28.60;37.60;;;;;;8348315;28;19913;-45
2022/07/16 18:08:30;;;;;;;;;;;28.60;37.60;;;;;;8366465;28;19999;-43
2022/07/16 18:12:31;;;;;;;;;;;28.60;37.70;;;;;;8366149;28;19943;-43
2022/07/16 18:16:31;;;;;;;;;;;28.60;37.60;;;;;;8365821;28;20400;-42
2022/07/16 18:20:31;;;;;;;;;;;28.50;37.60;;;;;;8348108;28;19917;-43
2022/07/16 18:24:32;;;;;;;;;;;28.60;37.70;;;;;;8366038;28;19917;-43
2022/07/16 18:28:32;;;;;;;;;;;28.60;37.70;;;;;;8365282;28;19913;-43
2022/07/16 18:32:33;;;;;;;;;;;28.50;37.70;;;;;;8365655;28;19980;-44
2022/07/16 18:36:33;;;;;;;;;;;28.50;37.70;;;;;;8365852;28;19917;-44
2022/07/16 18:40:34;;;;;;;;;;;28.50;37.70;;;;;;8364955;28;20282;-44
2022/07/16 18:44:34;;;;;;;;;;;28.50;37.70;;;;;;8365616;28;19924;-44
2022/07/16 18:48:35;;;;;;;;;;;28.50;37.80;;;;;;8365044;28;19959;-44
2022/07/16 18:52:35;;;;;;;;;;;28.50;37.70;;;;;;8364466;28;19924;-44
2022/07/16 18:56:36;;;;;;;;;;;28.50;37.70;;;;;;8355596;28;19916;-44
2022/07/16 19:00:36;;;;;;;;;;;28.50;37.80;;;;;;8364880;28;19921;-45
2022/07/16 19:04:37;;;;;;;;;;;28.50;37.80;;;;;;8357042;28;20473;-45
2022/07/16 19:08:37;;;;;;;;;;;28.50;37.80;;;;;;8339189;28;20286;-44
2022/07/16 19:12:38;;;;;;;;;;;28.50;37.80;;;;;;8364435;28;20023;-45
2022/07/16 19:16:38;;;;;;;;;;;28.40;37.70;;;;;;8363842;28;20022;-43
2022/07/16 19:20:39;;;;;;;;;;;28.40;37.80;;;;;;8364451;28;19948;-44
2022/07/16 19:24:40;;;;;;;;;;;28.40;37.80;;;;;;8364208;28;19917;-44
2022/07/16 19:28:40;;;;;;;;;;;28.40;37.70;;;;;;8363988;28;19959;-45
2022/07/16 19:32:41;;;;;;;;;;;28.40;37.80;;;;;;8363958;28;19921;-44
2022/07/16 19:36:43;;;;;;;;;;;28.40;37.70;;;;;;8363149;28;21284;-44
2022/07/16 19:40:43;;;;;;;;;;;28.40;37.80;;;;;;8363160;28;20365;-44
2022/07/16 19:44:44;;;;;;;;;;;28.40;37.80;;;;;;8364017;28;19926;-43
2022/07/16 19:48:44;;;;;;;;;;;28.40;37.80;;;;;;8363435;28;19919;-44
2022/07/16 19:52:45;;;;;;;;;;;28.40;37.80;;;;;;8363032;28;19947;-44
2022/07/16 20:01:04;;;;;;;;;;;28.40;37.90;;;;;;8363513;28;19974;-44
2022/07/16 20:05:05;;;;;;;;;;;28.30;37.80;;;;;;8361937;28;19917;-46
2022/07/16 20:09:06;;;;;;;;;;;28.40;37.80;;;;;;8363427;28;19975;-44
2022/07/16 20:13:06;;;;;;;;;;;28.30;38.30;;;;;;8363368;28;19965;-44
2022/07/16 20:17:06;;;;;;;;;;;28.30;37.70;;;;;;8362442;28;20560;-44
2022/07/16 20:21:08;;;;;;;;;;;28.30;37.60;;;;;;8363159;28;19921;-44
2022/07/16 20:25:12;;;;;;;;;;;28.30;37.60;;;;;;8362703;28;19916;-44
2022/07/16 20:29:12;;;;;;;;;;;28.30;37.70;;;;;;8362433;28;20366;-44
2022/07/16 20:33:13;;;;;;;;;;;28.30;37.80;;;;;;8363048;28;20062;-44
2022/07/16 20:37:17;;;;;;;;;;;28.30;37.80;;;;;;8362663;28;19920;-45
2022/07/16 20:41:18;;;;;;;;;;;28.30;37.70;;;;;;8361984;28;19920;-45
2022/07/16 20:45:18;;;;;;;;;;;28.30;37.70;;;;;;8362755;28;19916;-45
2022/07/16 20:49:19;;;;;;;;;;;28.30;38.30;;;;;;8362537;28;19917;-45
2022/07/16 20:53:19;;;;;;;;;;;28.20;37.70;;;;;;8362077;28;19921;-46
2022/07/16 20:57:19;;;;;;;;;;;28.20;37.70;;;;;;8362406;28;19916;-44
2022/07/16 21:01:20;;;;;;;;;;;28.20;37.80;;;;;;8362168;28;19917;-43
2022/07/16 21:05:20;;;;;;;;;;;28.20;37.80;;;;;;8361770;28;19917;-45
2022/07/16 21:09:23;;;;;;;;;;;28.20;37.70;;;;;;8362554;28;19924;-44
2022/07/16 21:13:24;;;;;;;;;;;28.20;37.70;;;;;;8362314;28;20378;-46
2022/07/16 21:17:24;;;;;;;;;;;28.20;37.70;;;;;;8364117;28;19917;-45
2022/07/16 21:21:25;;;;;;;;;;;28.20;37.70;;;;;;8368074;28;20320;-45
2022/07/16 21:25:25;;;;;;;;;;;28.10;37.60;;;;;;8367950;28;20062;-46
2022/07/16 21:29:26;;;;;;;;;;;28.10;37.60;;;;;;8367314;28;19921;-45
2022/07/16 21:33:26;;;;;;;;;;;28.10;37.60;;;;;;8367716;28;20389;-44
2022/07/16 21:37:27;;;;;;;;;;;28.10;37.60;;;;;;8367389;28;20012;-44
2022/07/16 21:41:28;;;;;;;;;;;28.10;37.60;;;;;;8366984;28;19921;-45
2022/07/16 21:45:28;;;;;;;;;;;28.10;37.60;;;;;;8359841;28;19913;-45
2022/07/16 21:49:28;;;;;;;;;;;28.10;37.60;;;;;;8348083;28;20001;-45
2022/07/16 21:53:29;;;;;;;;;;;28.10;37.60;;;;;;8366675;28;19921;-45
2022/07/16 21:57:29;;;;;;;;;;;28.10;37.60;;;;;;8366814;28;20007;-45
2022/07/16 22:01:30;;;;;;;;;;;28.10;37.60;;;;;;8365287;28;20003;-43
2022/07/16 22:05:31;;;;;;;;;;;28.10;37.60;;;;;;8366599;28;19948;-44
2022/07/16 22:09:31;;;;;;;;;;;28.00;37.60;;;;;;8366538;28;19916;-45
2022/07/16 22:13:32;;;;;;;;;;;28.10;37.60;;;;;;8334881;28;20334;-44
2022/07/16 22:17:32;;;;;;;;;;;28.00;37.60;;;;;;8362882;28;19916;-45
2022/07/16 22:21:32;;;;;;;;;;;28.00;37.60;;;;;;8366187;28;20006;-45
2022/07/16 22:25:33;;;;;;;;;;;28.00;37.60;;;;;;8365306;28;19986;-44
2022/07/16 22:29:33;;;;;;;;;;;28.00;37.50;;;;;;8365001;28;19995;-44
2022/07/16 22:33:34;;;;;;;;;;;28.00;37.50;;;;;;8366039;28;19962;-44
2022/07/16 22:37:41;;;;;;;;;;;28.00;37.60;;;;;;8365090;28;20020;-44
2022/07/16 22:41:43;;;;;;;;;;;28.00;37.60;;;;;;8365467;28;19924;-44
2022/07/16 22:45:43;;;;;;;;;;;28.00;37.60;;;;;;8365463;28;19962;-44
2022/07/16 22:49:44;;;;;;;;;;;28.00;37.60;;;;;;8364719;28;19916;-44
2022/07/16 22:53:44;;;;;;;;;;;27.90;37.50;;;;;;8365266;28;19913;-44
2022/07/16 22:57:44;;;;;;;;;;;27.90;37.60;;;;;;8364926;28;19917;-44
2022/07/16 23:01:45;;;;;;;;;;;27.90;37.50;;;;;;8364245;28;20386;-44
2022/07/16 23:05:45;;;;;;;;;;;27.90;37.60;;;;;;8364692;28;20382;-44
2022/07/16 23:09:46;;;;;;;;;;;27.90;37.60;;;;;;8364767;28;20274;-43
2022/07/16 23:13:46;;;;;;;;;;;27.90;37.60;;;;;;8364270;28;19928;-44
2022/07/16 23:17:47;;;;;;;;;;;27.90;37.60;;;;;;8364296;28;19955;-44
2022/07/16 23:21:47;;;;;;;;;;;27.90;37.60;;;;;;8364415;28;19921;-44
2022/07/16 23:25:47;;;;;;;;;;;27.80;37.60;;;;;;8363645;28;19920;-43
2022/07/16 23:29:48;;;;;;;;;;;27.80;37.70;;;;;;8364055;28;20015;-43
2022/07/16 23:33:48;;;;;;;;;;;27.80;37.60;;;;;;8364180;28;19916;-44
2022/07/16 23:37:49;;;;;;;;;;;27.80;37.60;;;;;;8363316;28;20405;-45
2022/07/16 23:41:49;;;;;;;;;;;27.80;37.60;;;;;;8363652;28;19939;-44
2022/07/16 23:45:50;;;;;;;;;;;27.80;37.60;;;;;;8363571;28;19917;-44
2022/07/16 23:49:51;;;;;;;;;;;27.80;37.60;;;;;;8363101;28;19913;-45
2022/07/16 23:53:51;;;;;;;;;;;27.80;37.60;;;;;;8363668;28;19912;-44
2022/07/16 23:57:52;;;;;;;;;;;27.80;37.60;;;;;;8363509;28;19982;-44
